Maryland METAR Reports


Distance/Direction noted is from Ellicott City, MD as the crow flies

KCBE - Cumberland - 118 miles WNW
Updated: Fri, 10/24/2014 5:16 AM
Clear
Clear
 Wind from NNW
Wind: NNW 7 mph, Gust: 18 mph
Temperature: 52°F
Dew Point: 43°F
Humidity: 72%
Barometer: 30.07 inHg
Clouds: Clear
Visibility: 10 miles
2014/10/24 09:16 KCBE 240916Z AUTO 34006G16KT 10SM CLR 11/06 A3007 RMK AO1
KHGR - Hagerstown - 57 miles NW
Updated: Fri, 10/24/2014 4:53 AM
Clear
Clear
 Wind from WNW
Wind: WNW 9 mph
Temperature: 52°F
Dew Point: 43°F
Humidity: 72%
Barometer: 29.97 inHg
Clouds: Clear
Visibility: 10 miles
2014/10/24 08:53 KHGR 240853Z AUTO 29008KT 10SM CLR 11/06 A2997 RMK AO2 SLP158 T01110056 53012
 
KFDK - Frederick - 34 miles NW
Updated: Fri, 10/24/2014 5:15 AM
Clear
Clear
 Wind from NNW
Wind: NNW 6 mph
Temperature: 57°F
Dew Point: 43°F
Humidity: 59%
Barometer: 29.97 inHg
Clouds: Clear
Visibility: 10 miles
2014/10/24 09:15 KFDK 240915Z AUTO 34005KT 10SM CLR 14/06 A2997 RMK AO2
KGAI - Gaithersburg - 26 miles SW
Updated: Fri, 10/24/2014 5:15 AM
Clear
Clear
 Wind from WNW
Wind: WNW 6 mph
Temperature: 48°F
Wind Chill: 45°F
Dew Point: 39°F
Humidity: 71%
Barometer: 29.97 inHg
Clouds: Clear
Visibility: 10 miles
2014/10/24 09:15 KGAI 240915Z 29005KT 10SM CLR 09/04 A2997 RMK AO1
 
KBWI - BWI Airport - 15 miles SE
Updated: Fri, 10/24/2014 4:54 AM
Few Clouds
Few Clouds
 Wind from WNW
Wind: WNW 7 mph
Temperature: 54°F
Dew Point: 43°F
Humidity: 67%
Barometer: 29.89 inHg
Clouds: Few Clouds
Visibility: 10 miles
Cloud Details: Few Clouds 5000 ft
2014/10/24 08:54 KBWI 240854Z 30006KT 10SM FEW050 12/06 A2989 RMK AO2 SLP122 T01220056 51006
KNAK - Annapolis - 32 miles SSE
Updated: Fri, 10/24/2014 4:54 AM
Clear
Clear
 Wind from WNW
Wind: WNW 7 mph
Temperature: 55°F
Dew Point: 43°F
Humidity: 63%
Barometer: 29.89 inHg
Clouds: Clear
Visibility: 10 miles
2014/10/24 08:54 KNAK 240854Z AUTO 30006KT 10SM CLR 13/06 A2989 RMK AO2 SLP123 T01280056 51006
 
KESN - Easton - 63 miles SE
Updated: Fri, 10/24/2014 5:29 AM
Clear
Clear
 Wind from NNW
Wind: NNW 10 mph
Temperature: 57°F
Dew Point: 45°F
Humidity: 63%
Barometer: 29.93 inHg
Clouds: Clear
Visibility: 10 miles
2014/10/24 09:29 KESN 240929Z AUTO 33009KT 10SM CLR 14/07 A2993 RMK AO2 T01360073
KSBY - Salisbury - 112 miles SE
Updated: Fri, 10/24/2014 4:54 AM
Overcast
Overcast
 Wind from WNW
Wind: WNW 8 mph
Temperature: 57°F
Dew Point: 46°F
Humidity: 67%
Barometer: 29.87 inHg
Clouds: Overcast
Visibility: 10 miles
Cloud Details: Overcast 4800 ft
2014/10/24 08:54 KSBY 240854Z AUTO 30007KT 10SM OVC048 14/08 A2987 RMK AO2 SLP118 T01440078 53007